Time;durP1;ratioP1;P1;durP2;ratioP2;P2;SDS_P1;SDS_P2;PMS_P1;PMS_P2;Temp;Humidity;BMP_temperature;BMP_pressure;BME280_temperature;BME280_humidity;BME280_pressure;Samples;Min_cycle;Max_cycle;Signal;HPM_P1;HPM_P2
2022/08/30 00:03:26;;;;;;;0.52;0.45;;;18.30;97.40;;;;;;4953270;28;20126;-74
2022/08/30 00:05:52;;;;;;;0.57;0.47;;;18.30;97.60;;;;;;4952982;28;20036;-74
2022/08/30 00:08:18;;;;;;;0.55;0.50;;;18.30;97.60;;;;;;4953356;28;20023;-74
2022/08/30 00:10:44;;;;;;;1.83;0.50;;;18.30;97.50;;;;;;4968269;28;20053;-74
2022/08/30 00:13:12;;;;;;;1.58;0.50;;;18.20;97.60;;;;;;4953165;28;20035;-74
2022/08/30 00:15:42;;;;;;;1.60;0.50;;;18.10;97.70;;;;;;4968031;28;20537;-74
2022/08/30 00:18:08;;;;;;;0.50;0.40;;;18.00;97.80;;;;;;4953329;28;20266;-73
2022/08/30 00:20:36;;;;;;;3.35;0.77;;;18.00;97.90;;;;;;4952914;28;20369;-74
2022/08/30 00:23:02;;;;;;;1.55;0.50;;;18.00;97.90;;;;;;4953426;28;20019;-74
2022/08/30 00:25:29;;;;;;;;;;;17.90;97.80;;;;;;4968429;28;20043;-74
2022/08/30 00:27:55;;;;;;;4.35;0.70;;;17.90;97.80;;;;;;4967857;28;19977;-74
2022/08/30 00:30:21;;;;;;;1.38;0.80;;;17.80;98.10;;;;;;4967823;28;20070;-74
2022/08/30 00:32:47;;;;;;;1.67;0.70;;;17.80;98.20;;;;;;4968129;28;20050;-74
2022/08/30 00:35:15;;;;;;;3.00;0.98;;;17.70;98.10;;;;;;4953306;28;20028;-74
2022/08/30 00:37:41;;;;;;;4.38;0.70;;;17.70;98.20;;;;;;4952945;28;20050;-73
2022/08/30 00:40:08;;;;;;;1.00;0.73;;;17.70;98.30;;;;;;4952632;28;20051;-74
2022/08/30 00:42:35;;;;;;;1.55;0.60;;;17.70;98.20;;;;;;4952862;28;20475;-73
2022/08/30 00:45:17;;;;;;;0.38;0.38;;;17.70;98.50;;;;;;4952862;28;20031;-74
2022/08/30 00:47:43;;;;;;;0.45;0.40;;;17.60;98.40;;;;;;4952697;28;20458;-74
2022/08/30 00:50:11;;;;;;;2.05;0.52;;;17.60;98.30;;;;;;4953511;28;20035;-74
2022/08/30 00:52:40;;;;;;;0.52;0.52;;;17.60;98.30;;;;;;4967888;28;20489;-74
2022/08/30 00:55:06;;;;;;;1.73;0.80;;;17.60;98.40;;;;;;4952614;28;20058;-75
2022/08/30 00:57:34;;;;;;;1.85;0.90;;;17.50;98.40;;;;;;4952466;28;20035;-74
2022/08/30 01:00:01;;;;;;;0.68;0.57;;;17.50;98.40;;;;;;4952530;28;20462;-74
2022/08/30 01:02:29;;;;;;;1.40;0.50;;;17.50;98.30;;;;;;4951152;28;20027;-73
2022/08/30 01:04:56;;;;;;;2.63;0.50;;;17.50;98.30;;;;;;4952815;28;20054;-74
2022/08/30 01:07:22;;;;;;;3.03;1.15;;;17.50;98.30;;;;;;4952516;28;20039;-74
2022/08/30 01:09:48;;;;;;;2.25;0.85;;;17.50;98.50;;;;;;4952322;28;20035;-74
2022/08/30 01:12:14;;;;;;;1.65;0.80;;;17.50;98.30;;;;;;4952371;28;20035;-73
2022/08/30 01:14:39;;;;;;;1.88;0.63;;;17.60;98.30;;;;;;4952306;28;20161;-73
2022/08/30 01:17:06;;;;;;;1.65;0.52;;;17.50;98.30;;;;;;4967804;28;20027;-75
2022/08/30 01:19:35;;;;;;;1.70;0.70;;;17.50;98.30;;;;;;4953698;28;20031;-74
2022/08/30 01:22:16;;;;;;;1.42;0.70;;;17.50;98.30;;;;;;4971455;28;20051;-74
2022/08/30 01:24:46;;;;;;;1.67;0.80;;;17.60;98.60;;;;;;4971314;28;20043;-74
2022/08/30 01:27:14;;;;;;;2.88;0.95;;;17.60;98.70;;;;;;4956052;28;20051;-74
2022/08/30 01:29:43;;;;;;;1.48;0.60;;;17.50;98.90;;;;;;4956021;28;20036;-74
2022/08/30 01:32:17;;;;;;;2.08;0.60;;;17.60;98.70;;;;;;4956352;28;20085;-74
2022/08/30 01:34:47;;;;;;;0.73;0.52;;;17.60;98.60;;;;;;4955926;28;20141;-75
2022/08/30 01:37:16;;;;;;;0.47;0.47;;;17.60;98.60;;;;;;4993963;28;20110;-75
2022/08/30 01:39:45;;;;;;;3.20;0.63;;;17.60;98.70;;;;;;4994218;28;20058;-75
2022/08/30 01:42:11;;;;;;;0.90;0.70;;;17.70;98.90;;;;;;4994658;28;20034;-75
2022/08/30 01:44:38;;;;;;;4.22;0.88;;;17.60;98.90;;;;;;4994604;28;20448;-73
2022/08/30 01:47:04;;;;;;;2.08;1.00;;;17.60;99.00;;;;;;4994778;28;20030;-74
2022/08/30 01:49:30;;;;;;;1.35;0.60;;;17.40;99.10;;;;;;4994424;28;20484;-74
2022/08/30 01:51:56;;;;;;;0.82;0.50;;;17.40;99.00;;;;;;4994176;28;20026;-75
2022/08/30 01:54:22;;;;;;;2.42;0.88;;;17.40;99.00;;;;;;4994172;28;20053;-74
2022/08/30 01:56:48;;;;;;;1.42;0.55;;;17.40;99.00;;;;;;4994362;28;20030;-74
2022/08/30 01:59:13;;;;;;;2.47;0.60;;;17.40;99.00;;;;;;4994680;28;20342;-75
2022/08/30 02:01:39;;;;;;;1.25;0.90;;;17.40;99.00;;;;;;4994437;28;20476;-75
2022/08/30 02:04:06;;;;;;;2.72;0.80;;;17.30;98.90;;;;;;4994226;28;20353;-76
2022/08/30 02:06:32;;;;;;;4.78;0.90;;;17.30;98.90;;;;;;4994323;28;20031;-75
2022/08/30 02:08:59;;;;;;;1.80;0.63;;;17.30;99.10;;;;;;4994120;28;20346;-75
2022/08/30 02:11:24;;;;;;;1.13;0.80;;;17.30;99.10;;;;;;4993964;28;20050;-75
2022/08/30 02:13:50;;;;;;;1.58;0.70;;;17.30;99.00;;;;;;4993546;28;20033;-74
2022/08/30 02:16:21;;;;;;;0.90;0.60;;;17.20;99.00;;;;;;4992704;28;20133;-74
2022/08/30 02:18:47;;;;;;;1.67;0.90;;;17.20;98.90;;;;;;4993931;28;20034;-74
2022/08/30 02:21:14;;;;;;;1.42;0.80;;;17.20;98.90;;;;;;4993797;28;20061;-75
2022/08/30 02:23:41;;;;;;;4.45;1.35;;;17.20;99.10;;;;;;4993742;28;20030;-75
2022/08/30 02:26:07;;;;;;;3.80;0.90;;;17.30;99.10;;;;;;4994219;28;20503;-75
2022/08/30 02:28:33;;;;;;;1.67;0.98;;;17.30;99.10;;;;;;4993811;28;20046;-74
2022/08/30 02:30:59;;;;;;;2.17;0.95;;;17.30;99.10;;;;;;4992374;28;20033;-73
2022/08/30 02:33:25;;;;;;;2.55;1.00;;;17.30;99.00;;;;;;4993853;28;20121;-73
2022/08/30 02:35:51;;;;;;;1.40;0.88;;;17.30;99.10;;;;;;4992650;28;20122;-73
2022/08/30 02:38:17;;;;;;;1.73;1.00;;;17.30;99.20;;;;;;4993909;28;20026;-73
2022/08/30 02:40:43;;;;;;;1.77;1.02;;;17.30;99.10;;;;;;4994253;28;20054;-74
2022/08/30 02:43:10;;;;;;;1.25;0.95;;;17.30;99.10;;;;;;4992771;28;20031;-73
2022/08/30 02:45:36;;;;;;;1.25;0.95;;;17.20;99.20;;;;;;4993523;28;20040;-74
2022/08/30 02:48:02;;;;;;;2.78;1.55;;;17.20;99.40;;;;;;4993583;28;20030;-75
2022/08/30 02:50:28;;;;;;;7.97;1.77;;;17.10;99.40;;;;;;4992296;28;20026;-73
2022/08/30 02:52:54;;;;;;;2.08;1.10;;;17.20;99.40;;;;;;4993109;28;20022;-74
2022/08/30 02:55:20;;;;;;;2.08;1.00;;;17.20;99.40;;;;;;4992991;28;20104;-74
2022/08/30 02:57:46;;;;;;;1.77;1.00;;;17.10;99.40;;;;;;4993400;28;20105;-75
2022/08/30 03:00:14;;;;;;;3.42;1.17;;;17.20;99.50;;;;;;4993517;28;20050;-74
2022/08/30 03:02:40;;;;;;;2.42;1.50;;;17.20;99.50;;;;;;4993043;28;20302;-75
2022/08/30 03:05:08;;;;;;;2.05;1.23;;;17.20;99.50;;;;;;4993544;28;20084;-75
2022/08/30 03:07:34;;;;;;;4.72;2.03;;;17.20;99.40;;;;;;4993269;28;20049;-74
2022/08/30 03:09:59;;;;;;;4.40;2.15;;;17.10;99.60;;;;;;4992802;28;20027;-74
2022/08/30 03:12:25;;;;;;;4.47;2.25;;;17.10;99.70;;;;;;4992836;28;20050;-75
2022/08/30 03:14:51;;;;;;;3.00;1.90;;;17.10;99.70;;;;;;4992991;28;20031;-75
2022/08/30 03:17:17;;;;;;;2.80;2.13;;;17.10;99.70;;;;;;4992785;28;20022;-75
2022/08/30 03:19:43;;;;;;;3.83;2.60;;;17.10;99.70;;;;;;4993094;28;20385;-74
2022/08/30 03:22:09;;;;;;;3.80;2.80;;;17.10;99.80;;;;;;4992921;28;20037;-75
2022/08/30 03:24:35;;;;;;;6.90;3.35;;;17.00;99.80;;;;;;4992768;28;20034;-73
2022/08/30 03:27:01;;;;;;;4.85;3.35;;;17.00;99.90;;;;;;4992710;28;20252;-74
2022/08/30 03:29:28;;;;;;;7.30;3.03;;;17.00;99.90;;;;;;4992674;28;20022;-75
2022/08/30 03:31:55;;;;;;;5.20;3.53;;;17.00;99.90;;;;;;4993184;28;20109;-73
2022/08/30 03:34:22;;;;;;;7.68;4.03;;;16.90;99.90;;;;;;4991801;28;20045;-75
2022/08/30 03:36:49;;;;;;;7.57;3.63;;;16.90;99.90;;;;;;4992607;28;20094;-74
2022/08/30 03:39:15;;;;;;;7.60;3.80;;;16.90;99.90;;;;;;4992431;28;20065;-74
2022/08/30 03:41:40;;;;;;;10.40;4.70;;;16.90;99.90;;;;;;4990722;28;20058;-75
2022/08/30 03:44:06;;;;;;;7.43;3.90;;;16.90;99.90;;;;;;4992486;28;20054;-75
2022/08/30 03:46:32;;;;;;;9.07;4.60;;;16.90;99.90;;;;;;4992229;28;20034;-73
2022/08/30 03:48:57;;;;;;;8.23;3.85;;;16.90;99.90;;;;;;4992005;28;20030;-75
2022/08/30 03:51:24;;;;;;;8.73;4.45;;;17.00;99.90;;;;;;4991931;28;20126;-75
2022/08/30 03:53:50;;;;;;;6.10;3.90;;;16.90;99.90;;;;;;4991891;28;20045;-74
2022/08/30 03:56:16;;;;;;;11.75;4.63;;;16.90;99.90;;;;;;4992347;28;20030;-75
2022/08/30 03:58:42;;;;;;;6.13;4.38;;;16.90;99.90;;;;;;4992048;28;20433;-75
2022/08/30 04:01:08;;;;;;;6.38;4.03;;;16.90;99.90;;;;;;4991977;28;20031;-74
2022/08/30 04:03:34;;;;;;;7.40;4.30;;;16.90;99.90;;;;;;4990662;28;20113;-74
2022/08/30 04:06:00;;;;;;;7.15;4.55;;;17.00;99.90;;;;;;4991837;28;20038;-75
2022/08/30 04:08:26;;;;;;;6.60;4.47;;;16.90;99.90;;;;;;4990771;28;20030;-76
2022/08/30 04:10:52;;;;;;;7.50;4.63;;;17.00;99.90;;;;;;4992274;28;20115;-74
2022/08/30 04:13:19;;;;;;;8.02;4.90;;;17.00;99.90;;;;;;4991847;28;20057;-76
2022/08/30 04:15:45;;;;;;;8.50;4.32;;;16.90;99.90;;;;;;4991685;28;20034;-74
2022/08/30 04:18:11;;;;;;;7.82;4.57;;;16.90;99.90;;;;;;4991528;28;20038;-73
2022/08/30 04:20:37;;;;;;;7.80;4.15;;;16.90;99.90;;;;;;4991459;28;20074;-75
2022/08/30 04:23:05;;;;;;;5.28;3.88;;;16.90;99.90;;;;;;4991018;28;20041;-74
2022/08/30 04:25:33;;;;;;;7.57;4.63;;;17.00;99.90;;;;;;4990510;28;20476;-74
2022/08/30 04:27:59;;;;;;;8.95;4.72;;;17.00;99.90;;;;;;4991477;28;20042;-74
2022/08/30 04:30:24;;;;;;;7.80;4.85;;;17.00;99.90;;;;;;4991642;28;20108;-74
2022/08/30 04:32:50;;;;;;;6.63;4.80;;;17.00;99.90;;;;;;4990401;28;20117;-75
2022/08/30 04:35:16;;;;;;;5.13;3.90;;;16.90;99.90;;;;;;4992215;28;20022;-75
2022/08/30 04:37:42;;;;;;;5.90;4.03;;;16.90;99.90;;;;;;4991591;28;20380;-75
2022/08/30 04:40:08;;;;;;;7.35;4.30;;;17.00;99.90;;;;;;4990266;28;20046;-75
2022/08/30 04:42:35;;;;;;;5.53;4.25;;;17.00;99.90;;;;;;4991342;28;20031;-74
2022/08/30 04:45:05;;;;;;;6.97;4.43;;;17.00;99.90;;;;;;4991532;28;20498;-73
2022/08/30 04:47:31;;;;;;;13.15;4.70;;;17.00;99.90;;;;;;4990340;28;20053;-75
2022/08/30 04:49:56;;;;;;;7.20;4.65;;;17.00;99.90;;;;;;4990710;28;20137;-74
2022/08/30 04:52:22;;;;;;;5.88;4.50;;;17.00;99.90;;;;;;4991482;28;20173;-74
2022/08/30 04:54:54;;;;;;;5.60;4.55;;;17.00;99.90;;;;;;4993328;28;20041;-74
2022/08/30 04:57:19;;;;;;;6.55;4.20;;;17.00;99.90;;;;;;4995684;28;20349;-74
2022/08/30 04:59:45;;;;;;;6.50;4.53;;;17.10;99.90;;;;;;4995177;28;20048;-74
2022/08/30 05:02:10;;;;;;;31.08;12.05;;;17.20;99.90;;;;;;4994498;28;20031;-75
2022/08/30 05:04:36;;;;;;;9.85;5.15;;;17.10;99.90;;;;;;4995198;28;20385;-74
2022/08/30 05:07:02;;;;;;;7.68;4.38;;;17.10;99.90;;;;;;4995401;28;20360;-74
2022/08/30 05:09:28;;;;;;;8.75;5.25;;;17.10;99.90;;;;;;4995227;28;20106;-76
2022/08/30 05:11:53;;;;;;;7.43;5.45;;;17.10;99.90;;;;;;4994968;28;20133;-74
2022/08/30 05:14:19;;;;;;;9.82;6.05;;;17.20;99.90;;;;;;4995014;28;20037;-74
2022/08/30 05:16:45;;;;;;;8.73;5.22;;;17.20;99.90;;;;;;4995313;28;20149;-75
2022/08/30 05:19:10;;;;;;;8.60;5.22;;;17.20;99.90;;;;;;4995047;28;20097;-75
2022/08/30 05:21:39;;;;;;;7.50;5.30;;;17.20;99.90;;;;;;4995058;28;20133;-75
2022/08/30 05:24:05;;;;;;;9.23;5.50;;;17.30;99.90;;;;;;4994869;28;20122;-76
2022/08/30 05:26:33;;;;;;;11.23;6.47;;;17.30;99.90;;;;;;4994809;28;20106;-75
2022/08/30 05:28:59;;;;;;;10.15;5.57;;;17.30;99.90;;;;;;4995204;28;20085;-76
2022/08/30 05:31:26;;;;;;;13.45;8.70;;;17.30;99.90;;;;;;4993728;28;20041;-75
2022/08/30 05:33:53;;;;;;;40.75;22.40;;;17.40;99.90;;;;;;4994581;28;20503;-73
2022/08/30 05:36:21;;;;;;;23.87;12.23;;;17.40;99.90;;;;;;4994703;28;20042;-76
2022/08/30 05:38:47;;;;;;;12.07;6.85;;;17.50;99.90;;;;;;4994949;28;20425;-75
2022/08/30 05:41:12;;;;;;;8.85;5.25;;;17.50;99.90;;;;;;4994858;28;20030;-74
2022/08/30 05:43:39;;;;;;;10.15;5.43;;;17.50;99.90;;;;;;4994574;28;20361;-76
2022/08/30 05:46:09;;;;;;;17.98;7.45;;;17.60;99.90;;;;;;4994495;28;20030;-74
2022/08/30 05:48:35;;;;;;;14.20;8.52;;;17.50;99.90;;;;;;4993545;28;20034;-74
2022/08/30 05:51:10;;;;;;;11.45;7.30;;;17.60;99.90;;;;;;4994415;28;20050;-74
2022/08/30 05:53:37;;;;;;;11.73;7.63;;;17.60;99.90;;;;;;4994238;28;22341;-75
2022/08/30 05:56:10;;;;;;;12.38;6.55;;;17.60;99.90;;;;;;4994559;28;20026;-74
2022/08/30 05:58:37;;;;;;;12.88;6.97;;;17.60;99.90;;;;;;4994268;28;20031;-75
2022/08/30 06:01:05;;;;;;;11.77;5.70;;;17.70;99.90;;;;;;4994105;28;20049;-75
2022/08/30 06:03:32;;;;;;;11.32;5.63;;;17.70;99.90;;;;;;4963338;28;20366;-76
2022/08/30 06:05:59;;;;;;;13.73;6.30;;;17.70;99.90;;;;;;4970200;28;20488;-76
2022/08/30 06:08:25;;;;;;;13.95;6.35;;;17.70;99.90;;;;;;4955270;28;20031;-76
2022/08/30 06:10:51;;;;;;;9.45;5.85;;;17.70;99.90;;;;;;4970659;28;20118;-74
2022/08/30 06:13:16;;;;;;;8.82;5.85;;;17.80;99.90;;;;;;4955347;28;20031;-76
2022/08/30 06:15:43;;;;;;;7.45;5.20;;;17.80;99.90;;;;;;4955349;28;20102;-76
2022/08/30 06:18:13;;;;;;;9.20;5.65;;;17.90;99.90;;;;;;4955386;28;20039;-75
2022/08/30 06:20:43;;;;;;;9.68;6.80;;;17.90;99.90;;;;;;4955010;28;20123;-76
2022/08/30 06:23:10;;;;;;;14.15;6.43;;;17.90;99.90;;;;;;4955818;28;20035;-77
2022/08/30 06:25:37;;;;;;;12.05;6.30;;;17.90;99.90;;;;;;4970360;28;20054;-76
2022/08/30 06:28:04;;;;;;;8.60;5.97;;;17.90;99.90;;;;;;4954822;28;20047;-75
2022/08/30 06:30:30;;;;;;;12.35;6.72;;;17.90;99.90;;;;;;4954791;28;20035;-75
2022/08/30 06:32:57;;;;;;;10.68;6.68;;;18.00;99.90;;;;;;4954582;28;20137;-75
2022/08/30 06:35:22;;;;;;;10.00;6.55;;;17.90;99.90;;;;;;4969759;28;20158;-74
2022/08/30 06:37:48;;;;;;;11.85;6.82;;;17.90;99.90;;;;;;4955132;29;20091;-74
2022/08/30 06:40:16;;;;;;;13.85;6.97;;;17.90;99.90;;;;;;4969567;28;20039;-75
2022/08/30 06:42:42;;;;;;;11.68;6.30;;;17.90;99.90;;;;;;4954705;28;20157;-75
2022/08/30 06:45:09;;;;;;;11.68;6.60;;;18.00;99.90;;;;;;4954614;28;20031;-75
2022/08/30 06:47:34;;;;;;;14.88;6.93;;;17.90;99.90;;;;;;4954769;28;20153;-74
2022/08/30 06:50:00;;;;;;;15.63;7.15;;;18.00;99.90;;;;;;4970049;28;20122;-74
2022/08/30 06:52:25;;;;;;;14.82;7.32;;;18.00;99.90;;;;;;4954675;28;20027;-73
2022/08/30 06:54:53;;;;;;;11.73;5.97;;;18.10;99.90;;;;;;4954634;28;20347;-76
2022/08/30 06:57:18;;;;;;;11.88;7.50;;;18.00;99.90;;;;;;4969662;28;20059;-75
2022/08/30 06:59:44;;;;;;;10.13;6.45;;;18.00;99.90;;;;;;4954351;28;20092;-75
2022/08/30 07:02:10;;;;;;;10.05;6.07;;;18.00;99.90;;;;;;4955009;28;20031;-75
2022/08/30 07:04:37;;;;;;;12.05;6.75;;;18.00;99.90;;;;;;4954809;28;20027;-74
2022/08/30 07:07:03;;;;;;;8.13;5.53;;;17.90;99.90;;;;;;4969787;28;20046;-74
2022/08/30 07:09:29;;;;;;;12.25;5.90;;;18.00;99.90;;;;;;4954987;28;20324;-73
2022/08/30 07:11:55;;;;;;;9.48;5.85;;;18.00;99.90;;;;;;4953562;28;20122;-74
2022/08/30 07:14:21;;;;;;;10.68;6.80;;;17.90;99.90;;;;;;4969826;28;20194;-75
2022/08/30 07:16:47;;;;;;;10.93;6.13;;;18.00;99.90;;;;;;4969310;28;20027;-75
2022/08/30 07:19:13;;;;;;;10.23;6.30;;;18.00;99.90;;;;;;4969962;28;20366;-75
2022/08/30 07:21:44;;;;;;;9.10;6.18;;;18.00;99.90;;;;;;4969159;28;20374;-73
2022/08/30 07:24:11;;;;;;;9.68;6.13;;;17.90;99.90;;;;;;4969150;28;20047;-74
2022/08/30 07:26:40;;;;;;;13.55;8.18;;;17.90;99.90;;;;;;4954276;28;20126;-75
2022/08/30 07:29:07;;;;;;;12.88;7.95;;;17.90;99.90;;;;;;4955417;28;20023;-74
2022/08/30 07:31:34;;;;;;;11.75;7.75;;;18.00;99.90;;;;;;4969884;28;20050;-74
2022/08/30 07:34:02;;;;;;;14.27;7.95;;;18.00;99.90;;;;;;4954071;28;20114;-76
2022/08/30 07:36:28;;;;;;;13.18;7.10;;;18.00;99.90;;;;;;4953718;28;20510;-75
2022/08/30 07:38:54;;;;;;;13.48;7.15;;;18.00;99.90;;;;;;4953619;28;20118;-76
2022/08/30 07:41:26;;;;;;;14.23;7.07;;;18.00;99.90;;;;;;4968162;28;20122;-73
2022/08/30 07:43:52;;;;;;;9.70;6.13;;;18.00;99.90;;;;;;4953964;28;20019;-75
2022/08/30 07:46:18;;;;;;;10.05;6.18;;;18.10;99.90;;;;;;4953334;28;20042;-74
2022/08/30 07:48:44;;;;;;;9.68;6.45;;;18.10;99.90;;;;;;4953317;28;20094;-75
2022/08/30 07:51:15;;;;;;;9.48;5.45;;;18.20;99.90;;;;;;4953450;28;20043;-74
2022/08/30 07:53:41;;;;;;;13.80;6.68;;;18.20;99.90;;;;;;4968326;28;20035;-74
2022/08/30 07:56:07;;;;;;;15.60;6.90;;;18.20;99.90;;;;;;4953747;28;20019;-76
2022/08/30 07:58:32;;;;;;;16.52;8.18;;;18.10;99.90;;;;;;4953421;28;20405;-74
2022/08/30 08:01:00;;;;;;;21.20;8.60;;;18.20;99.90;;;;;;4953514;28;20135;-75
2022/08/30 08:03:27;;;;;;;15.38;6.40;;;18.20;99.90;;;;;;4953595;28;20402;-75
2022/08/30 08:05:53;;;;;;;14.13;6.68;;;18.40;99.90;;;;;;4953367;28;20035;-74
2022/08/30 08:08:19;;;;;;;18.05;6.75;;;18.30;99.90;;;;;;4968276;28;20023;-74
2022/08/30 08:10:45;;;;;;;15.65;7.65;;;18.30;99.90;;;;;;4968768;28;20470;-75
2022/08/30 08:13:11;;;;;;;16.48;6.75;;;18.30;99.90;;;;;;4953414;28;20039;-75
2022/08/30 08:15:37;;;;;;;23.77;9.48;;;18.30;99.90;;;;;;4954070;28;20135;-75
2022/08/30 08:18:03;;;;;;;21.55;10.13;;;18.40;99.90;;;;;;4969579;28;20043;-75
2022/08/30 08:20:31;;;;;;;18.25;8.50;;;18.30;99.90;;;;;;4969328;28;20035;-75
2022/08/30 08:22:57;;;;;;;16.87;7.97;;;18.40;99.90;;;;;;4969227;28;20045;-75
2022/08/30 08:25:22;;;;;;;18.80;9.10;;;18.40;99.90;;;;;;4954035;28;20039;-74
2022/08/30 08:27:49;;;;;;;29.60;12.57;;;18.40;99.90;;;;;;4952982;28;20350;-74
2022/08/30 08:30:17;;;;;;;20.77;9.30;;;18.40;99.90;;;;;;4967909;28;20035;-73
2022/08/30 08:32:43;;;;;;;17.07;8.03;;;18.40;99.90;;;;;;4953195;28;20035;-75
2022/08/30 08:35:10;;;;;;;15.30;6.43;;;18.60;99.90;;;;;;4969171;28;20031;-75
2022/08/30 08:37:37;;;;;;;22.27;7.77;;;18.50;99.90;;;;;;4953101;28;20114;-75
2022/08/30 08:40:05;;;;;;;13.70;7.07;;;18.60;99.90;;;;;;4967665;28;20058;-73
2022/08/30 08:42:50;;;;;;;18.83;10.13;;;18.60;99.80;;;;;;4967743;28;20374;-76
2022/08/30 08:45:46;;;;;;;13.02;7.40;;;18.60;99.80;;;;;;4952866;28;20553;-76
2022/08/30 08:48:31;;;;;;;13.75;6.70;;;18.70;99.80;;;;;;4967960;28;20047;-75
2022/08/30 08:53:46;;;;;;;24.88;15.07;;;18.70;99.90;;;;;;4952946;28;20045;-76
2022/08/30 08:56:15;;;;;;;17.50;9.38;;;18.70;99.80;;;;;;4968137;28;20031;-77
2022/08/30 08:58:54;;;;;;;12.32;7.18;;;18.80;99.70;;;;;;4967819;28;20033;-75
2022/08/30 09:01:26;;;;;;;13.10;7.95;;;18.70;99.70;;;;;;4953010;28;20031;-75
2022/08/30 09:03:54;;;;;;;11.52;6.40;;;18.70;99.80;;;;;;4953321;28;20118;-74
2022/08/30 09:06:27;;;;;;;16.38;6.95;;;18.70;99.80;;;;;;4953256;28;20051;-75
2022/08/30 09:08:53;;;;;;;11.30;6.85;;;18.70;99.80;;;;;;4953030;28;20055;-76
2022/08/30 09:11:32;;;;;;;12.60;9.02;;;18.70;99.80;;;;;;4967845;28;20051;-75
2022/08/30 09:13:58;;;;;;;9.15;6.75;;;18.80;99.70;;;;;;4968294;28;20058;-75
2022/08/30 09:16:47;;;;;;;11.50;7.13;;;18.80;99.70;;;;;;4952729;28;20043;-76
2022/08/30 09:19:51;;;;;;;8.40;5.90;;;18.90;99.70;;;;;;4952913;28;20497;-76
2022/08/30 09:22:25;;;;;;;7.30;4.95;;;18.90;99.70;;;;;;4960940;28;20048;-75
2022/08/30 09:25:11;;;;;;;8.65;4.95;;;18.90;99.60;;;;;;4952416;28;20035;-74
2022/08/30 09:27:42;;;;;;;9.60;5.47;;;18.90;99.70;;;;;;4955533;28;20027;-75
2022/08/30 09:30:19;;;;;;;8.82;5.72;;;18.90;99.70;;;;;;4952863;28;20361;-76
2022/08/30 09:33:04;;;;;;;7.10;5.07;;;19.00;99.70;;;;;;4952949;28;20103;-75
2022/08/30 09:35:33;;;;;;;6.95;5.30;;;19.10;99.50;;;;;;4952693;28;20034;-74
2022/08/30 09:38:32;;;;;;;9.27;5.50;;;19.10;99.40;;;;;;4953310;28;20031;-75
2022/08/30 09:41:01;;;;;;;8.43;6.05;;;19.20;99.20;;;;;;4963504;28;20043;-75
2022/08/30 09:43:30;;;;;;;8.05;6.10;;;19.20;99.00;;;;;;4956116;28;20027;-76
2022/08/30 09:45:58;;;;;;;7.32;5.82;;;19.20;99.00;;;;;;4956328;28;20398;-77
2022/08/30 09:48:32;;;;;;;8.35;6.00;;;19.20;99.00;;;;;;4956114;28;20036;-75
2022/08/30 09:51:10;;;;;;;10.07;7.20;;;19.20;99.20;;;;;;4955901;28;20039;-76
2022/08/30 09:54:17;;;;;;;9.65;5.60;;;19.10;99.20;;;;;;4956029;28;20027;-77
2022/08/30 09:56:51;;;;;;;;;;;19.10;99.30;;;;;;4971207;28;20035;-75
2022/08/30 09:59:39;;;;;;;7.93;5.18;;;19.10;99.40;;;;;;4955828;28;19910;-74
2022/08/30 10:02:23;;;;;;;;;;;19.20;99.40;;;;;;4956549;29;20034;-75
2022/08/30 10:05:16;;;;;;;13.68;6.40;;;19.20;99.20;;;;;;4971434;28;19910;-74
2022/08/30 10:07:48;;;;;;;9.75;6.50;;;19.20;99.00;;;;;;4954921;28;20027;-76
2022/08/30 10:10:26;;;;;;;10.80;6.28;;;19.20;98.90;;;;;;4955684;28;20062;-76
2022/08/30 10:13:09;;;;;;;7.72;5.57;;;19.10;98.90;;;;;;4955613;28;20023;-75
2022/08/30 10:15:45;;;;;;;7.57;4.70;;;19.10;99.00;;;;;;4955602;28;20118;-74
2022/08/30 10:18:29;;;;;;;9.88;4.53;;;19.10;98.80;;;;;;4955452;28;20068;-75
2022/08/30 10:21:12;;;;;;;6.18;4.28;;;19.10;99.00;;;;;;4970759;28;20058;-75
2022/08/30 10:23:46;;;;;;;5.47;4.45;;;19.20;98.80;;;;;;4955923;28;20050;-76
2022/08/30 10:26:23;;;;;;;7.78;5.22;;;19.20;98.70;;;;;;4955431;28;20164;-75
2022/08/30 10:29:15;;;;;;;7.00;5.55;;;19.20;98.60;;;;;;4955140;28;20039;-75
2022/08/30 10:31:59;;;;;;;58.25;33.88;;;19.30;98.60;;;;;;4955393;28;20470;-76
2022/08/30 10:34:31;;;;;;;10.65;8.05;;;19.60;99.00;;;;;;4955099;28;20532;-75
2022/08/30 10:37:06;;;;;;;6.82;5.43;;;20.60;98.20;;;;;;4954855;28;20027;-74
2022/08/30 10:39:41;;;;;;;5.78;5.03;;;22.00;97.60;;;;;;4954919;28;20580;-74
2022/08/30 10:42:17;;;;;;;5.03;3.65;;;23.00;95.40;;;;;;4954456;28;20134;-75
2022/08/30 10:44:51;;;;;;;5.70;3.70;;;24.20;95.80;;;;;;4954602;28;20443;-73
2022/08/30 10:47:42;;;;;;;5.60;3.50;;;25.00;92.30;;;;;;4969457;28;20027;-70
2022/08/30 10:50:17;;;;;;;3.75;3.05;;;25.10;90.50;;;;;;4954913;28;20078;-73
2022/08/30 10:53:04;;;;;;;12.23;3.85;;;25.70;90.70;;;;;;4968748;28;20420;-74
2022/08/30 10:55:33;;;;;;;;;;;26.80;88.90;;;;;;4954706;28;20485;-73
2022/08/30 10:58:07;;;;;;;2.35;1.95;;;26.60;85.30;;;;;;4969548;28;19930;-74
2022/08/30 11:00:48;;;;;;;3.03;2.47;;;27.00;84.90;;;;;;4954828;28;20504;-75
2022/08/30 11:03:41;;;;;;;6.20;4.18;;;27.30;82.30;;;;;;4954851;28;20035;-74
2022/08/30 11:06:24;;;;;;;3.08;2.00;;;26.80;80.60;;;;;;4969626;28;20039;-74
2022/08/30 11:09:25;;;;;;;1.80;1.70;;;26.60;81.90;;;;;;4954973;28;20477;-74
2022/08/30 11:12:14;;;;;;;3.65;1.83;;;26.80;81.50;;;;;;4954163;28;20043;-74
2022/08/30 11:14:44;;;;;;;2.80;2.30;;;26.60;81.60;;;;;;4962126;28;20030;-73
2022/08/30 11:17:33;;;;;;;5.75;3.20;;;26.00;82.00;;;;;;4954616;28;20027;-74
2022/08/30 11:20:03;;;;;;;4.40;3.20;;;25.70;81.90;;;;;;4954502;28;20458;-73
2022/08/30 11:22:33;;;;;;;2.95;2.20;;;25.50;83.50;;;;;;4968883;28;20039;-73
2022/08/30 11:25:07;;;;;;;2.33;1.92;;;25.20;83.60;;;;;;4969481;28;20411;-73
2022/08/30 11:27:57;;;;;;;3.83;2.95;;;25.20;84.00;;;;;;4954554;28;20058;-73
2022/08/30 11:30:23;;;;;;;3.63;2.65;;;25.20;84.80;;;;;;4954343;28;20043;-74
2022/08/30 11:33:24;;;;;;;2.92;1.52;;;25.20;84.30;;;;;;4954645;28;20520;-73
2022/08/30 11:35:53;;;;;;;2.15;1.30;;;25.00;83.30;;;;;;4954164;28;20365;-74
2022/08/30 11:38:39;;;;;;;2.63;1.70;;;24.80;84.70;;;;;;4954056;28;20082;-73
2022/08/30 11:41:27;;;;;;;1.95;1.75;;;25.10;84.00;;;;;;4954477;28;20043;-75
2022/08/30 11:43:54;;;;;;;2.03;1.48;;;25.00;83.60;;;;;;4954388;28;20047;-73
2022/08/30 11:46:26;;;;;;;4.60;1.95;;;24.80;84.50;;;;;;4954042;28;20054;-73
2022/08/30 11:48:59;;;;;;;1.85;1.50;;;24.70;84.50;;;;;;4968612;28;20027;-74
2022/08/30 11:51:50;;;;;;;2.08;1.23;;;24.70;84.60;;;;;;4953603;28;20059;-73
2022/08/30 11:54:21;;;;;;;2.08;1.45;;;24.80;83.30;;;;;;4953982;28;20023;-74
2022/08/30 11:57:02;;;;;;;3.47;2.55;;;24.30;82.70;;;;;;4954332;28;20086;-74
2022/08/30 11:59:46;;;;;;;2.08;1.25;;;24.20;84.00;;;;;;4953896;28;20317;-71
2022/08/30 12:02:51;;;;;;;3.17;1.40;;;24.40;85.00;;;;;;4953961;29;20031;-73
2022/08/30 12:05:41;;;;;;;2.47;1.13;;;24.30;85.10;;;;;;4953029;28;20062;-73
2022/08/30 12:08:32;;;;;;;1.85;1.20;;;24.30;84.40;;;;;;4953271;28;20024;-74
2022/08/30 12:11:11;;;;;;;1.52;1.08;;;24.40;83.70;;;;;;4952580;28;20051;-74
2022/08/30 12:13:43;;;;;;;1.20;1.10;;;24.30;82.80;;;;;;4952892;28;20145;-73
2022/08/30 12:16:13;;;;;;;2.80;1.52;;;24.20;82.90;;;;;;4953329;28;20043;-73
2022/08/30 12:18:58;;;;;;;1.27;1.17;;;24.30;83.10;;;;;;4952793;28;20041;-73
2022/08/30 12:21:35;;;;;;;6.18;1.48;;;24.40;82.80;;;;;;4967729;28;20500;-73
2022/08/30 12:24:18;;;;;;;6.47;1.40;;;24.20;82.80;;;;;;4952761;28;20054;-72
2022/08/30 12:26:46;;;;;;;7.00;1.90;;;24.20;83.30;;;;;;4967910;28;20278;-72
2022/08/30 12:29:21;;;;;;;3.30;1.65;;;24.20;82.90;;;;;;4967814;28;20379;-72
2022/08/30 12:31:52;;;;;;;2.33;2.03;;;24.00;83.30;;;;;;4967942;28;20493;-76
2022/08/30 12:34:26;;;;;;;7.43;4.00;;;23.80;84.60;;;;;;4967650;28;20366;-73
2022/08/30 12:36:59;;;;;;;11.55;2.78;;;23.90;85.00;;;;;;4952566;28;20114;-73
2022/08/30 12:39:30;;;;;;;2.83;1.38;;;24.00;83.90;;;;;;4967822;28;20035;-73
2022/08/30 12:42:21;;;;;;;1.25;1.02;;;24.00;84.90;;;;;;4952845;28;20039;-73
2022/08/30 12:44:49;;;;;;;1.40;1.13;;;24.10;83.30;;;;;;4952543;28;20028;-72
2022/08/30 12:47:21;;;;;;;3.38;1.02;;;24.10;83.70;;;;;;4953257;28;20110;-72
2022/08/30 12:49:49;;;;;;;2.40;1.40;;;24.10;84.20;;;;;;4952927;28;20070;-73
2022/08/30 12:52:28;;;;;;;3.90;1.23;;;24.10;83.00;;;;;;4952575;28;20031;-73
2022/08/30 12:55:23;;;;;;;5.38;1.23;;;24.10;82.90;;;;;;4952318;28;20031;-73
2022/08/30 12:57:55;;;;;;;1.75;1.13;;;24.10;83.00;;;;;;4953903;28;20031;-73
2022/08/30 13:00:33;;;;;;;5.63;1.35;;;24.20;84.20;;;;;;4968466;28;20038;-72
2022/08/30 13:03:21;;;;;;;2.65;1.27;;;24.10;83.10;;;;;;4967661;28;20410;-72
2022/08/30 13:05:47;;;;;;;1.48;1.02;;;24.10;82.60;;;;;;4969092;28;20454;-71
2022/08/30 13:08:19;;;;;;;3.33;1.40;;;23.90;81.50;;;;;;4968226;28;20035;-72